Beaman, Iowa
Current Conditions -  °F | °C
As of 7:53 PM on Saturday 25 Oct 2014 (Local Time) from KMIW Reporting Station
Clear Clear  
Wind Chill: 53°   Ceiling: Unl
Heat Index: 53°   Visibility: 10mi
Dew Point: 36°   Wind: 3mph
Humidity: 52%   Direction: 330°NNW
Pressure: 30.06"   Gusts: NA
Location:  42.22°N, 92.82°W
Report Text: KMIW 260053Z AUTO 33003KT 10SM CLR 12/02 A3006 RMK AO2 SLP181 T01170022
Loading
Personal Weather Stations






























Interactive Weather Map
Tropical Storm Tracking
New forecast layout! Learn more

10-Day Weather Forecast

Advertisements
Track Severe Weather on mobile